Time;durP1;ratioP1;P1;durP2;ratioP2;P2;SDS_P1;SDS_P2;PMS_P1;PMS_P2;Temp;Humidity;BMP_temperature;BMP_pressure;BME280_temperature;BME280_humidity;BME280_pressure;Samples;Min_cycle;Max_cycle;Signal;HPM_P1;HPM_P2
2024/02/19 05:06:49;;;;;;;;;;;16.70;66.40;;;;;;5041114;28;20060;-77
2024/02/19 05:09:14;;;;;;;;;;;16.70;66.40;;;;;;5034235;28;20011;-77
2024/02/19 05:11:40;;;;;;;;;;;16.90;70.70;;;;;;5034117;28;19960;-77
2024/02/19 05:14:05;;;;;;;;;;;16.70;70.80;;;;;;5034017;28;20291;-77
2024/02/19 05:16:31;;;;;;;;;;;16.70;70.60;;;;;;5033936;28;19967;-78
2024/02/19 05:18:56;;;;;;;;;;;16.40;70.30;;;;;;5033981;28;19913;-77
2024/02/19 05:21:22;;;;;;;;;;;16.70;70.60;;;;;;5033928;28;19909;-77
2024/02/19 05:23:47;;;;;;;;;;;16.70;70.50;;;;;;5033796;28;19916;-77
2024/02/19 05:26:22;;;;;;;;;;;16.70;70.60;;;;;;5033918;28;19909;-77
2024/02/19 05:28:47;;;;;;;;;;;16.70;70.60;;;;;;5033878;28;19916;-77
2024/02/19 05:31:13;;;;;;;;;;;16.70;70.80;;;;;;5033766;28;19909;-77
2024/02/19 05:33:38;;;;;;;;;;;16.80;70.50;;;;;;5032815;28;19916;-78
2024/02/19 05:36:04;;;;;;;;;;;16.70;70.70;;;;;;5034115;28;20324;-77
2024/02/19 05:38:30;;;;;;;;;;;16.70;69.50;;;;;;5033536;28;20272;-77
2024/02/19 05:40:55;;;;;;;;;;;16.70;70.40;;;;;;5033534;28;19909;-77
2024/02/19 05:43:21;;;;;;;;;;;16.70;70.60;;;;;;5033535;28;19909;-77
2024/02/19 05:45:46;;;;;;;;;;;16.70;70.50;;;;;;5033483;28;19911;-77
2024/02/19 05:48:12;;;;;;;;;;;16.70;70.60;;;;;;5033525;28;20442;-77
2024/02/19 05:50:37;;;;;;;;;;;16.70;70.50;;;;;;5033412;28;19909;-77
2024/02/19 05:53:03;;;;;;;;;;;16.70;70.40;;;;;;5033571;28;19909;-77
2024/02/19 05:55:29;;;;;;;;;;;16.80;70.40;;;;;;5033283;28;19917;-77
2024/02/19 05:57:54;;;;;;;;;;;16.70;70.40;;;;;;5033229;28;19909;-77
2024/02/19 06:00:20;;;;;;;;;;;16.70;70.60;;;;;;5033133;28;20332;-77
2024/02/19 06:02:45;;;;;;;;;;;16.70;70.30;;;;;;5032381;28;19921;-77
2024/02/19 06:05:11;;;;;;;;;;;16.80;70.50;;;;;;5033524;28;20355;-70
2024/02/19 06:07:36;;;;;;;;;;;16.70;70.50;;;;;;5033075;28;19909;-70
2024/02/19 06:10:02;;;;;;;;;;;16.70;70.20;;;;;;5032929;28;19995;-70
2024/02/19 06:12:28;;;;;;;;;;;16.80;70.40;;;;;;5032954;28;19909;-70
2024/02/19 06:14:53;;;;;;;;;;;16.70;70.40;;;;;;5032724;28;19917;-70
2024/02/19 06:17:19;;;;;;;;;;;16.70;70.20;;;;;;5032970;28;20523;-70
2024/02/19 06:19:44;;;;;;;;;;;16.70;70.30;;;;;;5015085;28;19909;-71
2024/02/19 06:22:10;;;;;;;;;;;16.70;70.40;;;;;;5033026;28;19913;-70
2024/02/19 06:24:36;;;;;;;;;;;16.90;70.40;;;;;;5032469;28;19913;-71
2024/02/19 06:27:01;;;;;;;;;;;16.70;70.20;;;;;;5032940;28;19915;-70
2024/02/19 06:29:27;;;;;;;;;;;16.70;70.40;;;;;;5032652;28;19909;-71
2024/02/19 06:31:54;;;;;;;;;;;17.00;70.40;;;;;;5033165;28;19945;-70
2024/02/19 06:34:20;;;;;;;;;;;16.70;70.20;;;;;;5032619;28;19984;-70
2024/02/19 06:36:45;;;;;;;;;;;16.70;70.20;;;;;;5032673;28;19913;-71
2024/02/19 06:39:11;;;;;;;;;;;16.70;70.10;;;;;;5014843;28;19913;-71
2024/02/19 06:41:36;;;;;;;;;;;16.70;70.40;;;;;;5032139;28;20322;-71
2024/02/19 06:44:03;;;;;;;;;;;16.70;69.80;;;;;;5032572;28;20363;-71
2024/02/19 06:46:28;;;;;;;;;;;16.70;70.20;;;;;;5032468;28;19909;-71
2024/02/19 06:48:56;;;;;;;;;;;16.70;70.20;;;;;;5032591;28;19910;-71
2024/02/19 06:51:22;;;;;;;;;;;16.70;70.40;;;;;;5032388;28;19916;-70
2024/02/19 06:53:47;;;;;;;;;;;16.60;70.20;;;;;;5032160;28;19956;-70
2024/02/19 06:56:13;;;;;;;;;;;16.70;70.30;;;;;;5032196;28;20018;-71
2024/02/19 06:58:38;;;;;;;;;;;16.70;70.40;;;;;;5032519;28;19909;-70
2024/02/19 07:01:04;;;;;;;;;;;16.90;70.50;;;;;;5032789;28;19924;-74
2024/02/19 07:03:30;;;;;;;;;;;16.70;69.90;;;;;;5032068;28;20000;-71
2024/02/19 07:05:55;;;;;;;;;;;16.60;70.30;;;;;;5032349;28;20429;-70
2024/02/19 07:08:21;;;;;;;;;;;16.70;70.10;;;;;;5032234;28;19913;-69
2024/02/19 07:10:46;;;;;;;;;;;16.70;70.40;;;;;;5032252;28;19916;-70
2024/02/19 07:13:12;;;;;;;;;;;16.60;70.40;;;;;;5032513;28;19913;-70
2024/02/19 07:15:38;;;;;;;;;;;16.70;70.30;;;;;;5033859;28;19917;-79
2024/02/19 07:18:03;;;;;;;;;;;16.70;70.60;;;;;;5035993;28;19916;-80
2024/02/19 07:20:29;;;;;;;;;;;16.70;69.70;;;;;;5036415;28;19963;-81
2024/02/19 07:22:57;;;;;;;;;;;16.70;70.90;;;;;;5035896;28;20367;-77
2024/02/19 07:25:23;;;;;;;;;;;16.70;70.40;;;;;;5036013;28;19917;-77
2024/02/19 07:27:48;;;;;;;;;;;16.70;70.90;;;;;;5036522;28;20371;-78
2024/02/19 07:30:14;;;;;;;;;;;16.70;70.10;;;;;;5043963;28;19946;-73
2024/02/19 07:32:39;;;;;;;;;;;16.70;70.90;;;;;;5035849;28;20295;-84
2024/02/19 07:35:05;;;;;;;;;;;16.70;70.70;;;;;;5035651;28;19917;-79
2024/02/19 07:37:30;;;;;;;;;;;16.70;69.90;;;;;;5038268;28;19909;-77
2024/02/19 07:39:56;;;;;;;;;;;16.70;70.80;;;;;;5037660;28;19913;-78
2024/02/19 07:42:21;;;;;;;;;;;16.80;70.80;;;;;;5035801;28;19952;-73
2024/02/19 07:44:47;;;;;;;;;;;16.70;71.00;;;;;;5035655;28;19924;-77
2024/02/19 07:47:13;;;;;;;;;;;16.90;70.90;;;;;;5035634;28;19910;-77
2024/02/19 07:49:38;;;;;;;;;;;16.70;71.00;;;;;;5035831;28;19909;-77
2024/02/19 07:52:05;;;;;;;;;;;16.70;71.00;;;;;;5035757;28;19939;-75
2024/02/19 07:54:30;;;;;;;;;;;16.70;70.50;;;;;;5035307;28;20375;-79
2024/02/19 07:56:56;;;;;;;;;;;16.70;71.00;;;;;;5035412;28;20000;-76
2024/02/19 07:59:22;;;;;;;;;;;16.80;70.80;;;;;;5036061;28;19909;-79
2024/02/19 08:01:47;;;;;;;;;;;16.80;70.60;;;;;;5035147;28;20039;-77
2024/02/19 08:04:13;;;;;;;;;;;16.80;70.80;;;;;;5035062;28;19925;-77
2024/02/19 08:06:38;;;;;;;;;;;16.70;71.20;;;;;;5034923;28;19963;-77
2024/02/19 08:09:05;;;;;;;;;;;16.70;71.20;;;;;;5034024;28;19909;-77
2024/02/19 08:11:32;;;;;;;;;;;16.70;70.80;;;;;;5034976;28;19916;-77
2024/02/19 08:13:57;;;;;;;;;;;16.70;70.90;;;;;;5035024;28;20012;-77
2024/02/19 08:16:23;;;;;;;;;;;16.70;70.90;;;;;;5035298;28;20390;-77
2024/02/19 08:18:49;;;;;;;;;;;16.80;71.10;;;;;;5035097;28;20012;-77
2024/02/19 08:21:14;;;;;;;;;;;16.80;70.80;;;;;;5034969;28;20379;-78
2024/02/19 08:23:40;;;;;;;;;;;16.70;71.00;;;;;;5035085;28;19944;-77
2024/02/19 08:26:05;;;;;;;;;;;16.80;70.40;;;;;;5034987;28;20279;-78
2024/02/19 08:28:31;;;;;;;;;;;16.70;71.00;;;;;;5034833;28;19931;-77
2024/02/19 08:30:57;;;;;;;;;;;16.70;70.80;;;;;;5035072;28;19913;-77
2024/02/19 08:33:22;;;;;;;;;;;16.70;70.40;;;;;;5034717;28;20367;-77
2024/02/19 08:35:50;;;;;;;;;;;16.70;70.60;;;;;;5034907;28;19917;-77
2024/02/19 08:38:15;;;;;;;;;;;16.80;70.70;;;;;;5034699;28;20016;-77
2024/02/19 08:40:41;;;;;;;;;;;16.70;70.60;;;;;;5034593;28;20014;-77
2024/02/19 08:43:10;;;;;;;;;;;16.70;70.80;;;;;;5034595;28;20008;-77
2024/02/19 08:45:36;;;;;;;;;;;16.70;71.20;;;;;;5034751;28;19916;-77
2024/02/19 08:48:01;;;;;;;;;;;16.70;70.80;;;;;;5034521;28;19913;-77
2024/02/19 08:50:27;;;;;;;;;;;16.70;70.50;;;;;;5034400;28;19944;-77
2024/02/19 08:52:52;;;;;;;;;;;16.70;70.60;;;;;;5034387;28;20322;-77
2024/02/19 08:55:17;;;;;;;;;;;16.70;70.00;;;;;;5034727;28;19960;-77
2024/02/19 08:57:43;;;;;;;;;;;16.70;70.50;;;;;;5034248;28;20339;-77
2024/02/19 09:00:14;;;;;;;;;;;16.70;70.70;;;;;;5034276;28;19917;-77
2024/02/19 09:02:42;;;;;;;;;;;16.70;70.00;;;;;;5034027;28;20394;-78
2024/02/19 09:05:09;;;;;;;;;;;16.80;70.40;;;;;;5034313;28;19910;-77
2024/02/19 09:07:35;;;;;;;;;;;16.70;69.00;;;;;;5034078;28;20356;-77
2024/02/19 09:10:01;;;;;;;;;;;16.70;70.80;;;;;;5034052;28;19955;-77
2024/02/19 09:12:26;;;;;;;;;;;16.70;70.40;;;;;;5034038;28;19932;-77
2024/02/19 09:14:52;;;;;;;;;;;16.70;70.50;;;;;;5016250;28;20247;-77
2024/02/19 09:17:17;;;;;;;;;;;16.70;70.40;;;;;;5033933;28;19913;-77
2024/02/19 09:19:43;;;;;;;;;;;16.70;70.50;;;;;;5033801;28;19920;-77
2024/02/19 09:22:08;;;;;;;;;;;16.70;70.30;;;;;;5033803;28;19910;-77
2024/02/19 09:24:34;;;;;;;;;;;16.70;70.00;;;;;;5034179;28;19964;-77
2024/02/19 09:27:00;;;;;;;;;;;16.70;70.40;;;;;;5033658;28;19920;-77
2024/02/19 09:29:26;;;;;;;;;;;16.70;70.10;;;;;;5033911;28;19916;-77
2024/02/19 09:31:52;;;;;;;;;;;16.70;70.50;;;;;;5033735;28;20281;-77
2024/02/19 09:34:17;;;;;;;;;;;16.70;70.30;;;;;;5033446;28;19920;-77
2024/02/19 09:36:44;;;;;;;;;;;16.70;70.40;;;;;;5033578;28;20007;-77
2024/02/19 09:39:10;;;;;;;;;;;16.80;70.50;;;;;;5032898;28;19909;-77
2024/02/19 09:41:36;;;;;;;;;;;16.70;70.40;;;;;;5033435;28;19913;-78
2024/02/19 09:44:01;;;;;;;;;;;16.70;71.00;;;;;;5033620;28;19916;-77
2024/02/19 09:46:27;;;;;;;;;;;16.70;70.30;;;;;;5033225;28;20330;-77
2024/02/19 09:48:55;;;;;;;;;;;16.60;70.30;;;;;;5033184;28;19963;-77
2024/02/19 09:51:22;;;;;;;;;;;16.70;69.70;;;;;;5034020;28;19919;-77
2024/02/19 09:53:51;;;;;;;;;;;16.70;71.20;;;;;;5033482;28;19910;-77
2024/02/19 09:56:19;;;;;;;;;;;16.70;66.00;;;;;;5033169;28;20016;-77
2024/02/19 09:58:46;;;;;;;;;;;16.70;66.00;;;;;;5033357;28;19972;-77
2024/02/19 10:01:11;;;;;;;;;;;16.70;70.50;;;;;;5033124;28;19917;-77
2024/02/19 10:03:37;;;;;;;;;;;16.70;69.80;;;;;;5032881;28;19921;-77
2024/02/19 10:06:02;;;;;;;;;;;16.70;70.50;;;;;;5033092;28;19952;-77
2024/02/19 10:08:28;;;;;;;;;;;16.80;69.80;;;;;;5033056;28;20393;-78
2024/02/19 10:10:57;;;;;;;;;;;16.70;70.10;;;;;;5033038;28;19909;-78
2024/02/19 10:13:23;;;;;;;;;;;16.80;66.00;;;;;;5032924;28;19909;-75
2024/02/19 10:15:50;;;;;;;;;;;16.70;70.20;;;;;;5032743;28;19925;-75
2024/02/19 10:18:19;;;;;;;;;;;16.70;70.20;;;;;;5032770;28;19988;-75
2024/02/19 10:20:50;;;;;;;;;;;16.80;69.80;;;;;;5033217;28;19909;-75
2024/02/19 10:23:17;;;;;;;;;;;16.80;70.40;;;;;;5033035;28;19909;-75
2024/02/19 10:25:43;;;;;;;;;;;16.70;70.60;;;;;;5032721;28;20383;-76
2024/02/19 10:28:09;;;;;;;;;;;16.60;70.10;;;;;;5032606;28;19916;-76
2024/02/19 10:30:35;;;;;;;;;;;16.70;70.10;;;;;;5032693;28;19939;-75
2024/02/19 10:33:00;;;;;;;;;;;16.70;69.90;;;;;;5032690;28;20375;-76
2024/02/19 10:35:27;;;;;;;;;;;16.70;70.20;;;;;;5032139;28;19918;-76
2024/02/19 10:37:53;;;;;;;;;;;16.80;70.40;;;;;;5032626;28;19918;-75
2024/02/19 10:40:19;;;;;;;;;;;16.70;70.20;;;;;;5032629;28;19913;-75
2024/02/19 10:42:47;;;;;;;;;;;16.70;70.50;;;;;;5032565;28;20290;-76
2024/02/19 10:45:13;;;;;;;;;;;16.70;70.50;;;;;;5032445;28;19909;-76
2024/02/19 10:47:39;;;;;;;;;;;16.70;69.80;;;;;;5032483;28;19916;-76
2024/02/19 10:50:06;;;;;;;;;;;16.80;69.90;;;;;;5035519;28;19995;-75
2024/02/19 10:52:33;;;;;;;;;;;16.90;69.40;;;;;;5036883;28;20318;-76
2024/02/19 10:55:00;;;;;;;;;;;16.80;70.30;;;;;;5036495;28;20406;-75
2024/02/19 10:57:27;;;;;;;;;;;16.70;70.40;;;;;;5036490;28;19990;-75
2024/02/19 11:00:06;;;;;;;;;;;16.70;70.40;;;;;;5036435;28;19909;-76
2024/02/19 11:02:32;;;;;;;;;;;16.80;70.10;;;;;;5036293;28;19921;-76
2024/02/19 11:04:58;;;;;;;;;;;16.80;70.40;;;;;;5036360;28;19909;-76
2024/02/19 11:07:24;;;;;;;;;;;16.70;70.10;;;;;;5036631;28;20322;-75
2024/02/19 11:09:57;;;;;;;;;;;16.80;70.20;;;;;;5036537;28;19913;-76
2024/02/19 11:12:25;;;;;;;;;;;16.80;70.60;;;;;;5036332;28;19913;-76
2024/02/19 11:14:51;;;;;;;;;;;16.70;70.30;;;;;;5036140;28;19929;-76
2024/02/19 11:17:17;;;;;;;;;;;16.80;70.40;;;;;;5036909;28;19913;-76
2024/02/19 11:19:43;;;;;;;;;;;16.80;70.40;;;;;;5036177;28;19944;-76
2024/02/19 11:22:09;;;;;;;;;;;16.70;70.70;;;;;;5036022;28;20319;-75
2024/02/19 11:24:35;;;;;;;;;;;16.70;70.60;;;;;;5036044;28;19909;-76
2024/02/19 11:27:02;;;;;;;;;;;16.70;70.50;;;;;;5035958;28;19915;-75
2024/02/19 11:29:28;;;;;;;;;;;16.80;70.80;;;;;;5036041;28;19909;-76
2024/02/19 11:32:00;;;;;;;;;;;16.80;70.60;;;;;;5035861;28;20008;-75
2024/02/19 11:34:26;;;;;;;;;;;16.80;66.40;;;;;;5035742;28;19917;-76
2024/02/19 11:36:51;;;;;;;;;;;16.80;70.60;;;;;;5035801;28;19916;-76
2024/02/19 11:39:17;;;;;;;;;;;16.80;70.80;;;;;;5035702;28;19909;-75
2024/02/19 11:41:43;;;;;;;;;;;16.80;70.50;;;;;;5035708;28;19913;-76
2024/02/19 11:44:12;;;;;;;;;;;16.80;70.80;;;;;;5035630;28;19916;-76
2024/02/19 11:46:39;;;;;;;;;;;16.80;70.60;;;;;;5036379;28;19909;-76
2024/02/19 11:49:05;;;;;;;;;;;16.80;70.80;;;;;;5035486;28;19917;-76
2024/02/19 11:51:31;;;;;;;;;;;16.80;70.50;;;;;;5035795;28;19909;-76
2024/02/19 11:53:57;;;;;;;;;;;16.80;70.50;;;;;;5035380;28;20249;-76
2024/02/19 11:56:22;;;;;;;;;;;16.70;70.50;;;;;;5035432;28;19917;-76
2024/02/19 11:58:51;;;;;;;;;;;16.80;70.30;;;;;;5035465;28;20007;-75
2024/02/19 12:01:24;;;;;;;;;;;16.80;69.90;;;;;;5034365;28;19932;-75
2024/02/19 12:03:50;;;;;;;;;;;16.80;66.80;;;;;;5035164;28;19928;-76
2024/02/19 12:06:16;;;;;;;;;;;16.80;70.50;;;;;;5035191;28;19909;-76
2024/02/19 12:08:42;;;;;;;;;;;16.80;70.30;;;;;;5035187;28;19910;-76
2024/02/19 12:11:08;;;;;;;;;;;16.80;70.00;;;;;;5035332;28;20267;-75
2024/02/19 12:13:40;;;;;;;;;;;16.90;70.40;;;;;;5035167;28;19936;-76
2024/02/19 12:16:06;;;;;;;;;;;16.70;70.30;;;;;;5035605;28;19921;-76
2024/02/19 12:18:32;;;;;;;;;;;16.80;70.10;;;;;;5035266;28;19932;-75
2024/02/19 12:20:59;;;;;;;;;;;16.90;70.10;;;;;;5035208;28;20364;-76
2024/02/19 12:23:25;;;;;;;;;;;16.90;70.20;;;;;;5035131;28;20072;-75
2024/02/19 12:25:51;;;;;;;;;;;16.80;70.30;;;;;;5035229;28;19964;-76
2024/02/19 12:28:17;;;;;;;;;;;16.80;70.10;;;;;;5034810;28;20308;-76
2024/02/19 12:30:43;;;;;;;;;;;16.80;70.10;;;;;;5034783;28;20004;-76
2024/02/19 12:33:10;;;;;;;;;;;16.80;69.80;;;;;;5035000;28;19916;-76
2024/02/19 12:35:36;;;;;;;;;;;16.90;70.00;;;;;;5033954;28;20335;-75
2024/02/19 12:38:02;;;;;;;;;;;16.80;69.80;;;;;;5034716;28;19936;-76
2024/02/19 12:40:27;;;;;;;;;;;16.70;69.90;;;;;;5034634;28;19975;-76
2024/02/19 12:42:53;;;;;;;;;;;16.70;69.90;;;;;;5034365;28;20252;-76
2024/02/19 12:45:19;;;;;;;;;;;16.80;69.90;;;;;;5033663;28;20007;-75
2024/02/19 12:47:45;;;;;;;;;;;16.80;70.00;;;;;;5033818;28;19909;-76
2024/02/19 12:50:12;;;;;;;;;;;16.70;69.70;;;;;;5033091;28;19915;-77
2024/02/19 12:52:38;;;;;;;;;;;16.70;69.80;;;;;;5034647;28;20044;-76
2024/02/19 12:55:03;;;;;;;;;;;16.70;69.70;;;;;;5034331;28;20438;-76
2024/02/19 12:57:29;;;;;;;;;;;16.70;68.60;;;;;;5034538;28;19932;-69
2024/02/19 12:59:56;;;;;;;;;;;16.80;69.80;;;;;;5034289;28;19936;-69
2024/02/19 13:02:22;;;;;;;;;;;16.70;69.20;;;;;;5033970;28;19924;-69
2024/02/19 13:04:48;;;;;;;;;;;16.70;69.70;;;;;;5034180;28;19909;-69
2024/02/19 13:07:15;;;;;;;;;;;16.70;69.60;;;;;;5034256;28;19955;-69
2024/02/19 13:09:41;;;;;;;;;;;16.70;69.80;;;;;;5034023;28;19920;-69
2024/02/19 13:12:07;;;;;;;;;;;16.70;69.90;;;;;;5034443;28;20256;-69
2024/02/19 13:14:34;;;;;;;;;;;16.70;69.00;;;;;;5033791;28;19917;-69
2024/02/19 13:16:59;;;;;;;;;;;16.70;69.50;;;;;;5034134;28;19909;-69
2024/02/19 13:19:25;;;;;;;;;;;16.70;69.70;;;;;;5033838;28;19963;-69
2024/02/19 13:21:50;;;;;;;;;;;16.70;69.70;;;;;;5033800;28;19998;-69
2024/02/19 13:24:16;;;;;;;;;;;16.60;69.30;;;;;;5033836;28;19909;-69
2024/02/19 13:26:41;;;;;;;;;;;16.70;69.60;;;;;;5015969;28;20402;-69
2024/02/19 13:29:07;;;;;;;;;;;16.70;69.50;;;;;;5033760;28;19916;-69
2024/02/19 13:31:32;;;;;;;;;;;16.70;69.70;;;;;;5033857;28;20288;-69
2024/02/19 13:33:58;;;;;;;;;;;16.60;69.50;;;;;;5033886;28;19916;-69
2024/02/19 13:36:23;;;;;;;;;;;16.70;69.60;;;;;;5033516;28;19924;-69
2024/02/19 13:38:49;;;;;;;;;;;16.60;69.30;;;;;;5033707;28;19909;-69
2024/02/19 13:41:15;;;;;;;;;;;16.60;69.30;;;;;;5033903;28;19928;-69
2024/02/19 13:43:42;;;;;;;;;;;16.70;69.10;;;;;;5033561;28;19932;-69
2024/02/19 13:46:07;;;;;;;;;;;16.70;69.40;;;;;;5033679;28;19916;-69
2024/02/19 13:48:33;;;;;;;;;;;16.70;69.60;;;;;;5033510;28;19909;-69
2024/02/19 13:51:00;;;;;;;;;;;16.60;69.50;;;;;;5033534;28;19913;-69
2024/02/19 13:53:29;;;;;;;;;;;16.60;69.80;;;;;;5033143;28;19909;-68
2024/02/19 13:55:56;;;;;;;;;;;16.60;69.60;;;;;;5033072;28;19963;-69
2024/02/19 13:58:22;;;;;;;;;;;16.60;69.50;;;;;;5033356;28;20287;-69
2024/02/19 14:00:48;;;;;;;;;;;16.70;69.70;;;;;;5033117;28;19909;-69
2024/02/19 14:03:14;;;;;;;;;;;16.70;68.90;;;;;;5032958;28;20024;-69
2024/02/19 14:05:39;;;;;;;;;;;16.60;69.50;;;;;;5033000;28;20426;-69
2024/02/19 14:08:05;;;;;;;;;;;16.60;69.40;;;;;;5033539;28;19960;-69
2024/02/19 14:10:31;;;;;;;;;;;16.60;68.20;;;;;;5032810;28;20040;-69
2024/02/19 14:12:56;;;;;;;;;;;16.60;69.50;;;;;;5032906;28;20364;-69
2024/02/19 14:15:22;;;;;;;;;;;16.70;69.30;;;;;;5032850;28;19961;-69
2024/02/19 14:17:47;;;;;;;;;;;16.60;69.60;;;;;;5032781;28;19909;-69
2024/02/19 14:20:13;;;;;;;;;;;16.60;69.40;;;;;;5032926;28;19915;-69
2024/02/19 14:22:38;;;;;;;;;;;16.60;69.20;;;;;;5032779;28;20374;-69
2024/02/19 14:25:13;;;;;;;;;;;16.60;69.50;;;;;;5032290;28;20334;-69
2024/02/19 14:27:39;;;;;;;;;;;16.70;68.40;;;;;;5032681;28;19999;-70
2024/02/19 14:30:07;;;;;;;;;;;16.70;69.60;;;;;;5032960;28;19955;-69
2024/02/19 14:32:33;;;;;;;;;;;16.60;68.80;;;;;;5032854;28;19909;-70
2024/02/19 14:34:59;;;;;;;;;;;16.60;69.70;;;;;;5032373;28;19923;-69
2024/02/19 14:37:26;;;;;;;;;;;16.60;69.30;;;;;;5033175;28;19909;-69
2024/02/19 14:39:52;;;;;;;;;;;16.60;69.30;;;;;;5032395;28;20376;-69
2024/02/19 14:42:17;;;;;;;;;;;16.60;69.60;;;;;;5032520;28;19909;-69
2024/02/19 14:44:42;;;;;;;;;;;16.50;69.40;;;;;;5032465;28;19909;-69
2024/02/19 14:47:08;;;;;;;;;;;16.60;69.40;;;;;;5032453;28;19909;-69
2024/02/19 14:49:34;;;;;;;;;;;16.60;69.60;;;;;;5032351;28;19916;-69
2024/02/19 14:52:00;;;;;;;;;;;16.60;69.30;;;;;;5032136;28;20005;-68
2024/02/19 14:54:26;;;;;;;;;;;16.60;69.60;;;;;;5032251;28;19994;-70
2024/02/19 14:56:53;;;;;;;;;;;16.60;69.40;;;;;;5032007;28;19920;-67
2024/02/19 14:59:20;;;;;;;;;;;16.60;69.20;;;;;;5032283;28;19915;-71
2024/02/19 15:01:46;;;;;;;;;;;16.60;69.00;;;;;;5032024;28;19979;-71
2024/02/19 15:04:12;;;;;;;;;;;16.60;69.50;;;;;;5032100;28;20399;-70
2024/02/19 15:06:38;;;;;;;;;;;16.60;69.50;;;;;;5032621;28;20368;-72
2024/02/19 15:09:04;;;;;;;;;;;16.50;69.40;;;;;;5031609;28;19909;-70
2024/02/19 15:11:31;;;;;;;;;;;16.90;69.70;;;;;;5014311;28;20232;-69
2024/02/19 15:13:57;;;;;;;;;;;16.60;69.40;;;;;;5032030;28;19970;-71
2024/02/19 15:16:22;;;;;;;;;;;16.50;69.50;;;;;;5032050;28;19917;-72
2024/02/19 15:18:48;;;;;;;;;;;16.60;69.60;;;;;;5032051;28;20291;-71
2024/02/19 15:21:14;;;;;;;;;;;16.60;69.70;;;;;;5032203;28;19910;-71
2024/02/19 15:23:41;;;;;;;;;;;16.50;69.60;;;;;;5032244;28;19913;-70
2024/02/19 15:26:09;;;;;;;;;;;16.50;69.50;;;;;;5032105;28;19915;-71
2024/02/19 15:28:36;;;;;;;;;;;16.50;69.50;;;;;;5032133;28;20375;-71
2024/02/19 15:31:02;;;;;;;;;;;16.50;70.20;;;;;;5032053;28;19963;-71
2024/02/19 15:33:28;;;;;;;;;;;16.50;69.10;;;;;;5032394;28;20330;-70
2024/02/19 15:35:54;;;;;;;;;;;16.70;69.60;;;;;;5032469;28;20417;-71
2024/02/19 15:38:19;;;;;;;;;;;16.50;69.50;;;;;;5035853;28;19917;-71
2024/02/19 15:40:45;;;;;;;;;;;16.50;69.60;;;;;;5035822;28;19913;-69
2024/02/19 15:43:11;;;;;;;;;;;16.30;69.40;;;;;;5035676;28;19915;-71
2024/02/19 15:45:38;;;;;;;;;;;16.50;69.60;;;;;;5035532;28;19909;-70
2024/02/19 15:48:04;;;;;;;;;;;16.50;69.50;;;;;;5035565;28;19909;-71
2024/02/19 15:50:29;;;;;;;;;;;16.50;69.00;;;;;;5035621;28;19955;-71
2024/02/19 15:52:55;;;;;;;;;;;16.50;69.80;;;;;;5035726;28;20256;-71
2024/02/19 15:55:21;;;;;;;;;;;16.60;69.60;;;;;;5035712;28;20359;-71
2024/02/19 15:57:46;;;;;;;;;;;16.50;69.70;;;;;;5035443;28;19909;-71
2024/02/19 16:00:12;;;;;;;;;;;16.50;69.60;;;;;;5035373;28;19963;-71
2024/02/19 16:02:40;;;;;;;;;;;16.50;69.20;;;;;;5035305;28;19921;-71
2024/02/19 16:05:08;;;;;;;;;;;16.50;69.60;;;;;;5035585;28;19909;-71
2024/02/19 16:07:34;;;;;;;;;;;16.50;68.10;;;;;;5035338;28;20493;-71
2024/02/19 16:09:59;;;;;;;;;;;16.50;69.40;;;;;;5035682;28;19917;-71
2024/02/19 16:12:25;;;;;;;;;;;16.50;69.60;;;;;;5035181;28;19943;-68
2024/02/19 16:14:50;;;;;;;;;;;16.50;69.80;;;;;;5035094;28;19939;-71
2024/02/19 16:17:17;;;;;;;;;;;16.50;69.60;;;;;;5035098;28;19909;-70
2024/02/19 16:19:43;;;;;;;;;;;16.50;69.50;;;;;;5035268;28;20279;-85
2024/02/19 16:22:09;;;;;;;;;;;16.60;70.10;;;;;;5035230;28;19916;-70
2024/02/19 16:24:34;;;;;;;;;;;16.50;69.60;;;;;;5035020;28;20015;-70
2024/02/19 16:27:03;;;;;;;;;;;16.50;69.70;;;;;;5035096;28;19913;-69
2024/02/19 16:29:29;;;;;;;;;;;16.50;65.50;;;;;;5034987;28;19955;-69
2024/02/19 16:31:55;;;;;;;;;;;16.50;69.60;;;;;;5034835;28;20343;-70
2024/02/19 16:34:21;;;;;;;;;;;16.40;69.70;;;;;;5034546;28;20012;-70
2024/02/19 16:36:46;;;;;;;;;;;16.50;69.40;;;;;;5034757;28;20004;-70
2024/02/19 16:39:12;;;;;;;;;;;16.50;69.80;;;;;;5035114;28;19948;-70
2024/02/19 16:41:38;;;;;;;;;;;16.50;69.50;;;;;;5034535;28;20378;-69
2024/02/19 16:44:03;;;;;;;;;;;16.50;69.40;;;;;;5034504;28;19917;-73
2024/02/19 16:46:29;;;;;;;;;;;16.80;69.30;;;;;;5034569;28;19910;-70
2024/02/19 16:48:54;;;;;;;;;;;16.40;69.60;;;;;;5034361;28;20271;-71
2024/02/19 16:51:20;;;;;;;;;;;16.30;69.40;;;;;;5034485;28;19913;-69
2024/02/19 16:53:51;;;;;;;;;;;16.50;69.50;;;;;;5034445;28;19944;-69
2024/02/19 16:56:17;;;;;;;;;;;16.40;67.40;;;;;;5034310;28;19917;-70
2024/02/19 16:58:43;;;;;;;;;;;16.40;69.40;;;;;;5034307;28;20454;-70
2024/02/19 17:01:10;;;;;;;;;;;16.40;69.40;;;;;;5034271;28;19924;-70
2024/02/19 17:03:36;;;;;;;;;;;16.40;69.10;;;;;;5033984;28;19921;-69
2024/02/19 17:06:01;;;;;;;;;;;16.40;69.50;;;;;;5034148;28;20008;-69
2024/02/19 17:08:28;;;;;;;;;;;16.50;69.00;;;;;;5034854;28;19955;-74
2024/02/19 17:10:54;;;;;;;;;;;16.50;69.50;;;;;;5034085;28;19909;-70
2024/02/19 17:13:20;;;;;;;;;;;16.40;69.30;;;;;;5033949;28;19919;-70
2024/02/19 17:15:45;;;;;;;;;;;16.40;69.50;;;;;;5033932;28;20008;-71
2024/02/19 17:18:11;;;;;;;;;;;16.40;69.40;;;;;;5033922;28;19910;-72
2024/02/19 17:20:37;;;;;;;;;;;16.40;69.60;;;;;;5033804;28;19913;-71
2024/02/19 17:23:02;;;;;;;;;;;16.30;69.30;;;;;;5033951;28;19955;-72
2024/02/19 17:25:29;;;;;;;;;;;16.40;69.20;;;;;;5033995;28;20322;-71
2024/02/19 17:27:55;;;;;;;;;;;16.40;69.00;;;;;;5033875;28;20436;-73
2024/02/19 17:30:20;;;;;;;;;;;16.40;69.40;;;;;;5033718;28;19952;-72
2024/02/19 17:32:46;;;;;;;;;;;16.40;69.20;;;;;;5033537;28;20287;-72
2024/02/19 17:35:13;;;;;;;;;;;16.30;69.30;;;;;;5033690;28;20261;-72
2024/02/19 17:37:38;;;;;;;;;;;16.40;68.70;;;;;;5034253;28;19945;-68
2024/02/19 17:40:07;;;;;;;;;;;16.30;69.00;;;;;;5033506;28;20382;-71
2024/02/19 17:42:33;;;;;;;;;;;16.30;67.50;;;;;;5033515;28;20395;-71
2024/02/19 17:44:58;;;;;;;;;;;16.30;69.20;;;;;;5033556;28;19952;-71
2024/02/19 17:47:24;;;;;;;;;;;16.30;69.30;;;;;;5015783;28;20280;-72
2024/02/19 17:49:50;;;;;;;;;;;16.30;69.10;;;;;;5033665;28;19948;-71
2024/02/19 17:52:16;;;;;;;;;;;16.30;69.00;;;;;;5033535;28;19940;-74
2024/02/19 17:54:41;;;;;;;;;;;16.40;69.20;;;;;;5032850;28;20011;-71
2024/02/19 17:57:07;;;;;;;;;;;16.30;69.10;;;;;;5033115;28;19917;-71
2024/02/19 17:59:34;;;;;;;;;;;16.40;69.30;;;;;;5032244;28;19909;-72
2024/02/19 18:02:00;;;;;;;;;;;16.20;68.60;;;;;;5032921;28;19929;-71
2024/02/19 18:04:26;;;;;;;;;;;16.30;68.50;;;;;;5033732;28;19999;-71
2024/02/19 18:06:55;;;;;;;;;;;16.20;69.20;;;;;;5033143;28;20003;-71
2024/02/19 18:09:21;;;;;;;;;;;16.20;69.00;;;;;;5032804;28;19909;-71
2024/02/19 18:11:47;;;;;;;;;;;16.20;69.00;;;;;;5032831;28;19909;-72
2024/02/19 18:14:13;;;;;;;;;;;16.20;69.20;;;;;;5033022;28;19915;-72
2024/02/19 18:16:44;;;;;;;;;;;16.20;68.90;;;;;;5032705;28;19923;-71
2024/02/19 18:19:10;;;;;;;;;;;16.20;69.10;;;;;;5032699;28;19971;-71
2024/02/19 18:21:39;;;;;;;;;;;16.20;68.70;;;;;;5032547;28;20374;-71
2024/02/19 18:24:08;;;;;;;;;;;16.20;68.90;;;;;;5032571;28;19909;-71
2024/02/19 18:26:33;;;;;;;;;;;16.10;67.80;;;;;;5032633;28;20299;-71
2024/02/19 18:28:59;;;;;;;;;;;16.20;68.80;;;;;;5032711;28;19909;-71
2024/02/19 18:31:25;;;;;;;;;;;16.20;69.30;;;;;;5032592;28;19952;-71
2024/02/19 18:33:50;;;;;;;;;;;16.20;69.40;;;;;;5032934;28;19909;-71
2024/02/19 18:36:16;;;;;;;;;;;16.10;68.90;;;;;;5032355;28;19963;-71
2024/02/19 18:38:42;;;;;;;;;;;16.20;68.40;;;;;;5032320;28;19916;-72
2024/02/19 18:41:08;;;;;;;;;;;16.20;69.00;;;;;;5032704;28;19959;-72
2024/02/19 18:43:34;;;;;;;;;;;16.20;68.90;;;;;;5032351;28;19916;-72
2024/02/19 18:46:01;;;;;;;;;;;16.20;69.10;;;;;;5032330;28;19920;-72
2024/02/19 18:48:28;;;;;;;;;;;16.10;68.80;;;;;;5032327;28;19995;-76
2024/02/19 18:50:54;;;;;;;;;;;16.10;68.90;;;;;;5014504;28;19909;-72
2024/02/19 18:53:20;;;;;;;;;;;16.10;69.20;;;;;;5033416;28;19913;-71
2024/02/19 18:55:54;;;;;;;;;;;16.10;68.90;;;;;;5034653;28;20003;-71
2024/02/19 18:58:21;;;;;;;;;;;16.30;69.20;;;;;;5032408;28;19920;-71
2024/02/19 19:00:46;;;;;;;;;;;16.10;68.80;;;;;;5032167;28;19916;-71
2024/02/19 19:03:14;;;;;;;;;;;16.10;68.60;;;;;;5032486;28;19921;-71
2024/02/19 19:05:40;;;;;;;;;;;16.10;68.80;;;;;;5032455;28;19913;-71
2024/02/19 19:08:07;;;;;;;;;;;16.10;69.10;;;;;;5032084;28;19996;-71
2024/02/19 19:10:33;;;;;;;;;;;16.10;67.80;;;;;;5034032;28;19916;-71
2024/02/19 19:12:59;;;;;;;;;;;16.00;68.90;;;;;;5036417;28;19909;-71
2024/02/19 19:15:25;;;;;;;;;;;16.00;68.90;;;;;;5036326;28;19956;-71